Latest Weather Observations for Kingfish B

IDV60801

Issued at 4:35 am EST Wednesday 3 September 2014 (issued every 30 minutes, with the page automatically refreshed every 10 minutes)

About weather observations | Map of weather stations | Latest weather observations for VIC | Other Formats
Station Details ID: 400139 Name: KINGFISH B (PLATFORM) Lat: -38.60 Lon: 148.19 Height: 31.4 m
Data from the previous 72 hours. | See also: Recent months for locations in Victoria
Date/Time
EST
Temp
°C
App
Temp
°C
Dew
Point
Rel
Hum
%
Delta-T
°C
Wind Press
QNH
hPa
Press
MSL
hPa
Rain
since 9 am
mm
Dir
 
Spd
km/h
Gust
km/h
Spd
kts
Gust
kts
03/03:20am 12.0 6.0 5.5 64 3.0 S 26 32 14 17 1019.0 - -
03/03:10am 11.9 5.4 4.8 62 3.2 S 28 33 15 18 1019.0 - -
03/03:00am 12.0 5.6 5.4 64 3.1 S 28 33 15 18 1018.8 - -
03/02:50am 12.0 6.0 5.5 64 3.0 SSE 26 33 14 18 1018.8 - -
03/02:40am 12.0 6.0 5.3 63 3.1 S 26 33 14 18 1018.7 - -
03/02:30am 12.0 5.9 4.7 61 3.3 S 26 32 14 17 1018.7 - -
03/02:20am 12.0 6.0 5.1 62 3.2 S 26 35 14 19 1018.7 - -
03/02:10am 11.9 6.3 5.3 64 3.0 S 24 32 13 17 1018.6 - -
03/02:00am 11.9 6.1 4.3 59 3.4 S 24 32 13 17 1018.5 - -
03/01:50am 11.9 5.7 4.2 59 3.5 S 26 32 14 17 1018.5 - -
03/01:40am 11.7 6.4 3.2 56 3.7 S 20 32 11 17 1018.4 - -
03/01:20am 12.0 4.2 1.9 50 4.3 S 32 54 17 29 1019.0 - -
03/01:10am 12.0 3.2 3.4 55 3.8 SSW 39 48 21 26 1019.1 - -
03/01:00am 11.5 4.7 5.0 64 3.0 S 30 54 16 29 1019.1 - -
03/12:50am 11.0 6.6 4.5 64 2.9 SSE 17 30 9 16 1018.9 - -
03/12:40am 11.4 3.9 4.7 63 3.0 SSE 33 54 18 29 1019.3 - -
03/12:30am 12.4 6.4 5.1 61 3.4 S 26 43 14 23 1019.2 - -
03/12:20am 12.9 6.8 4.6 57 3.8 SSW 26 32 14 17 1019.1 - -
03/12:10am 12.9 6.6 3.8 54 4.1 SSW 26 32 14 17 1019.2 - -
03/12:00am 13.0 6.3 3.9 54 4.1 SSW 28 35 15 19 1019.3 - -
 
Date/Time
EST
Temp
°C
App
Temp
°C
Dew
Point
Rel
Hum
%
Delta-T
°C
Wind Press
QNH
hPa
Press
MSL
hPa
Rain
since 9 am
mm
Dir
 
Spd
km/h
Gust
km/h
Spd
kts
Gust
kts
02/11:50pm 12.7 6.4 3.6 54 4.1 SSW 26 33 14 18 1019.4 - -
02/11:40pm 12.7 5.9 3.3 52 4.2 SSW 28 32 15 17 1019.4 - -
02/11:30pm 12.6 6.2 3.0 52 4.2 SSW 26 30 14 16 1019.4 - -
02/11:10pm 12.5 6.0 2.7 51 4.3 SSW 26 33 14 18 1019.4 - -
02/11:00pm 12.4 5.9 2.7 51 4.2 SSW 26 33 14 18 1019.5 - -
02/10:50pm 12.3 5.8 2.5 51 4.3 SSW 26 33 14 18 1019.6 - -
02/10:40pm 12.4 5.5 2.5 51 4.3 SSW 28 32 15 17 1019.7 - -
02/10:30pm 12.3 5.4 2.3 50 4.3 SSW 28 33 15 18 1019.8 - -
02/10:20pm 12.2 5.7 2.7 52 4.2 SSW 26 32 14 17 1019.8 - -
02/10:10pm 12.2 5.9 3.7 56 3.8 SSW 26 33 14 18 1019.9 - -
02/10:00pm 12.3 5.2 3.4 54 4.0 SSW 30 33 16 18 1019.8 - -
02/09:50pm 12.2 5.4 3.1 53 4.0 SSW 28 35 15 19 1019.9 - -
02/09:40pm 12.2 5.1 3.7 56 3.8 SSW 30 35 16 19 1019.9 - -
02/09:30pm 12.1 5.4 3.7 56 3.8 SSW 28 33 15 18 1019.9 - -
02/09:20pm 11.9 4.8 3.7 57 3.7 SSW 30 35 16 19 1020.1 - -
02/09:10pm 11.9 5.6 3.8 57 3.6 SSW 26 32 14 17 1020.0 - -
02/09:00pm 11.9 5.2 3.7 57 3.7 SSW 28 33 15 18 1020.1 - -
02/08:50pm 11.9 5.3 4.3 59 3.4 SSW 28 35 15 19 1020.0 - -
02/08:40pm 11.9 4.8 3.4 56 3.8 S 30 37 16 20 1020.1 - -
02/08:30pm 12.0 4.1 2.5 52 4.1 S 33 41 18 22 1020.2 - -
02/08:20pm 12.0 4.2 2.9 53 4.0 S 33 39 18 21 1020.2 - -
02/08:10pm 12.0 4.3 3.3 55 3.8 SSW 33 39 18 21 1020.3 - -
02/08:00pm 12.0 3.9 3.0 54 4.0 SSW 35 41 19 22 1020.3 - -
02/07:50pm 12.0 4.0 4.0 58 3.6 SSW 35 43 19 23 1020.2 - -
02/07:40pm 11.9 4.2 3.6 57 3.7 S 33 39 18 21 1020.1 - -
02/07:30pm 12.1 4.0 3.3 55 3.9 SSW 35 41 19 22 1020.0 - -
02/07:20pm 12.2 3.7 3.2 54 4.0 SSW 37 41 20 22 1020.0 - -
02/07:10pm 12.1 4.0 3.1 54 4.0 S 35 43 19 23 1019.9 - -
02/07:00pm 12.1 4.0 3.5 55 3.8 S 35 39 19 21 1019.7 - -
02/06:50pm 12.2 4.7 4.4 59 3.5 S 33 39 18 21 1019.6 - -
02/06:40pm 12.1 4.1 4.0 57 3.6 S 35 41 19 22 1019.6 - -
02/06:30pm 11.8 5.0 5.2 64 3.0 S 30 41 16 22 1019.3 - -
02/06:20pm 11.9 4.8 5.3 64 3.0 S 32 44 17 24 1019.3 - -
02/06:10pm 11.7 4.5 4.9 63 3.1 S 32 50 17 27 1019.3 - -
02/06:00pm 12.2 4.8 5.0 61 3.3 S 33 43 18 23 1019.3 - -
02/05:50pm 12.2 4.7 4.6 59 3.5 S 33 41 18 22 1019.1 - -
02/05:40pm 12.2 4.6 4.1 57 3.7 S 33 41 18 22 1019.0 - -
02/05:30pm 12.2 4.6 3.9 57 3.7 S 33 43 18 23 1018.9 - -
02/05:20pm 12.3 4.6 3.4 54 4.0 S 33 43 18 23 1018.8 - -
02/05:10pm 12.3 4.8 3.2 54 4.0 SSE 32 39 17 21 1018.6 - -
02/05:00pm 12.4 5.3 3.6 55 3.9 SSE 30 39 16 21 1018.5 - -
02/04:50pm 12.4 4.8 2.8 52 4.2 SSE 32 39 17 21 1018.4 - -
02/04:40pm 12.4 5.0 3.9 56 3.8 SSE 32 41 17 22 1018.2 - -
02/04:30pm 12.4 4.4 3.6 55 3.9 SSE 35 43 19 23 1018.2 - -
02/04:20pm 12.5 4.0 3.2 53 4.1 SSE 37 44 20 24 1018.1 - -
02/04:00pm 12.4 3.8 4.5 58 3.6 SSE 39 50 21 27 1017.9 - -
02/03:50pm 12.4 3.1 5.0 60 3.4 S 43 50 23 27 1017.8 - -
02/03:40pm 12.4 3.1 5.2 61 3.3 SSE 43 54 23 29 1017.6 - -
02/03:30pm 12.4 3.1 4.9 60 3.4 SSE 43 54 23 29 1017.5 - -
02/03:20pm 12.4 2.9 5.1 61 3.4 S 44 54 24 29 1017.5 - -
02/03:10pm 12.4 2.6 5.1 61 3.4 S 46 56 25 30 1017.4 - -
02/03:00pm 12.3 2.0 4.8 60 3.4 S 48 54 26 29 1017.3 - -
02/02:50pm 12.4 2.1 4.7 59 3.5 S 48 57 26 31 1017.2 - -
02/02:40pm 12.4 2.2 5.1 61 3.4 SSE 48 56 26 30 1017.0 - -
02/02:30pm 12.4 1.8 5.1 61 3.4 S 50 57 27 31 1017.0 - -
02/02:20pm 12.4 2.1 4.7 59 3.5 S 48 57 26 31 1016.8 - -
02/02:10pm 12.4 1.3 4.4 58 3.6 S 52 57 28 31 1016.9 - -
02/02:00pm 12.4 2.1 4.6 59 3.6 S 48 59 26 32 1016.6 - -
02/01:50pm 12.4 1.3 4.6 59 3.6 S 52 59 28 32 1016.5 - -
02/01:40pm 12.4 1.4 5.0 60 3.4 SSE 52 61 28 33 1016.3 - -
02/01:30pm 12.4 1.8 5.3 62 3.3 SSE 50 61 27 33 1016.2 - -
02/01:20pm 12.3 1.1 5.7 64 3.1 SSE 54 63 29 34 1016.2 - -
02/01:10pm 12.3 1.1 5.9 65 3.0 SSE 54 61 29 33 1016.1 - -
02/01:00pm 12.3 1.5 6.2 66 2.9 SSE 52 63 28 34 1015.9 - -
02/12:50pm 12.4 1.6 6.2 66 2.9 SSE 52 63 28 34 1015.8 - -
02/12:40pm 12.3 1.9 6.2 66 2.9 SSE 50 61 27 33 1015.7 - -
02/12:30pm 12.1 2.2 6.8 70 2.5 S 48 59 26 32 1015.7 - -
02/12:20pm 12.3 2.0 6.3 67 2.8 SSE 50 57 27 31 1015.6 - -
02/12:10pm 12.4 2.0 6.0 65 3.0 SSE 50 61 27 33 1015.5 - -
02/12:00pm 12.3 1.5 6.0 65 3.0 SSE 52 63 28 34 1015.5 - -
02/11:50am 12.3 1.2 6.4 67 2.8 SSE 54 65 29 35 1015.5 - -
02/11:40am 12.3 1.9 6.0 65 3.0 S 50 61 27 33 1015.4 - -
02/11:30am 12.6 2.0 4.9 59 3.5 SSE 50 61 27 33 1015.3 - -
02/11:20am 12.5 1.3 4.1 56 3.8 SSE 52 63 28 34 1015.3 - -
02/11:10am 12.5 1.4 4.5 58 3.6 SSE 52 63 28 34 1015.2 - -
02/11:00am 12.1 0.5 6.0 66 2.9 SSE 56 65 30 35 1015.3 - -
02/10:50am 12.0 2.6 7.3 73 2.3 S 46 57 25 31 1015.0 - -
02/10:40am 11.8 1.2 7.0 72 2.3 S 52 57 28 31 1015.2 - -
02/10:30am 11.5 0.9 7.0 74 2.2 S 52 61 28 33 1015.1 - -
02/10:20am 11.8 2.1 7.5 75 2.1 SSE 48 61 26 33 1014.6 - -
02/10:10am 12.1 1.8 6.6 69 2.6 SSE 50 59 27 32 1014.8 - -
02/10:00am 11.2 2.6 8.1 81 1.5 SSE 43 54 23 29 1014.5 - -
02/09:40am 10.4 0.4 9.3 93 0.5 SSE 52 61 28 33 1014.8 - -
02/09:30am 11.1 0.3 7.6 79 1.7 SSE 54 69 29 37 1014.8 - -
02/09:20am 11.4 1.6 7.0 74 2.1 SSE 48 61 26 33 1014.3 - -
02/09:10am 11.9 1.4 7.5 74 2.1 SSE 52 65 28 35 1014.5 - -
02/09:00am 12.3 1.3 6.7 68 2.7 SSE 54 63 29 34 1014.4 - -
02/08:50am 12.3 2.5 7.0 70 2.5 SSE 48 61 26 33 1014.1 - -
02/08:40am 12.1 2.8 7.6 74 2.2 SSE 46 57 25 31 1014.0 - -
02/08:30am 11.7 3.3 7.5 75 2.0 SSE 41 56 22 30 1013.6 - -
02/08:20am 11.6 1.2 7.9 78 1.8 SSE 52 70 28 38 1014.0 - -
02/08:10am 12.4 2.6 6.9 69 2.6 SSE 48 61 26 33 1013.8 - -
02/08:00am 12.4 3.3 6.7 68 2.7 SSE 44 56 24 30 1013.5 - -
02/07:50am 12.1 3.2 6.8 70 2.5 SSE 43 56 23 30 1013.0 - -
02/07:40am 11.7 2.6 6.9 72 2.3 SSE 44 61 24 33 1013.2 - -
02/07:30am 11.3 2.5 7.2 76 2.0 S 43 61 23 33 1013.4 - -
02/07:20am 11.0 4.0 6.9 76 1.9 S 33 54 18 29 1013.2 - -
02/07:10am 12.1 5.0 6.2 67 2.8 S 33 48 18 26 1012.9 - -
02/07:00am 11.8 3.5 6.1 68 2.7 S 39 50 21 27 1013.0 - -
02/06:50am 11.7 4.5 7.5 75 2.0 SSW 35 46 19 25 1012.8 - -
02/06:40am 11.2 4.4 7.1 76 2.0 SSW 32 43 17 23 1012.7 - -
02/06:30am 10.8 4.3 6.4 74 2.1 S 30 39 16 21 1012.6 - -
02/06:20am 10.2 2.2 5.8 74 2.0 S 37 46 20 25 1012.6 - -
02/06:10am 10.2 -0.6 6.2 76 1.9 S 52 65 28 35 1013.2 - -
02/06:00am 10.2 -1.3 7.3 82 1.4 S 57 70 31 38 1013.1 - -
02/05:50am 10.7 -1.8 7.5 80 1.5 S 63 76 34 41 1012.9 - -
02/05:40am 11.5 2.1 8.9 84 1.3 SSE 48 59 26 32 1011.8 - -
02/05:30am 11.3 2.0 9.3 87 1.0 SSE 48 56 26 30 1011.5 - -
02/05:10am 11.4 2.4 10.4 94 0.5 SSE 48 57 26 31 1011.0 - -
02/05:00am 11.2 1.9 10.4 95 0.4 SSE 50 59 27 32 1010.8 - -
02/04:50am 11.2 5.0 10.0 92 0.6 SSE 33 44 18 24 1010.5 - -
02/04:40am 11.4 4.7 9.6 89 0.9 SSE 35 44 19 24 1010.4 - -
02/04:30am 11.8 4.7 9.6 86 1.1 SSE 37 50 20 27 1010.4 - -
02/04:20am 12.1 5.1 9.8 86 1.2 S 37 44 20 24 1010.3 - -
02/04:10am 11.9 5.5 9.5 85 1.2 S 33 41 18 22 1010.0 - -
02/04:00am 12.4 5.9 8.9 79 1.8 S 33 39 18 21 1009.8 - -
02/03:50am 12.9 7.2 8.2 73 2.3 SSW 28 33 15 18 1009.5 - -
02/03:40am 13.1 7.4 8.5 73 2.3 SSW 28 33 15 18 1009.2 - -
02/03:30am 13.3 8.1 8.7 73 2.3 SSW 26 32 14 17 1009.0 - -
02/03:20am 13.2 7.5 8.5 73 2.3 SSW 28 32 15 17 1009.0 - -
02/03:10am 13.2 7.1 8.2 71 2.5 SSW 30 35 16 19 1009.2 - -
02/03:00am 13.2 6.7 8.0 71 2.6 SW 32 37 17 20 1009.0 - -
02/02:50am 13.1 6.3 7.9 70 2.6 SW 33 39 18 21 1008.9 - -
02/02:40am 13.0 6.2 7.9 71 2.5 SW 33 39 18 21 1008.8 - -
02/02:30am 13.0 6.4 7.8 70 2.6 SW 32 35 17 19 1008.8 - -
02/02:20am 13.0 6.8 7.9 71 2.5 SW 30 37 16 20 1008.8 - -
02/02:10am 13.1 6.5 7.9 70 2.6 SW 32 35 17 19 1008.7 - -
02/02:00am 13.0 6.4 7.8 70 2.6 SW 32 37 17 20 1008.7 - -
02/01:50am 13.0 6.4 7.9 71 2.5 SW 32 37 17 20 1008.9 - -
02/01:40am 13.0 6.3 8.1 72 2.4 SW 33 37 18 20 1008.7 - -
02/01:20am 13.0 6.3 8.2 72 2.4 SW 33 39 18 21 1008.8 - -
02/01:10am 13.1 6.0 8.2 72 2.4 SW 35 43 19 23 1008.6 - -
02/01:00am 13.3 5.9 8.5 72 2.4 SW 37 44 20 24 1008.8 - -
02/12:50am 13.3 5.9 8.4 72 2.4 SW 37 44 20 24 1008.7 - -
02/12:40am 13.3 5.8 8.1 71 2.6 SW 37 44 20 24 1008.7 - -
02/12:30am 13.2 6.5 8.0 71 2.6 SW 33 41 18 22 1008.7 - -
02/12:20am 13.2 6.1 8.1 71 2.5 SW 35 41 19 22 1008.6 - -
02/12:10am 13.2 6.5 8.3 72 2.4 SW 33 41 18 22 1008.8 - -
02/12:00am 13.1 6.3 7.9 70 2.6 SW 33 41 18 22 1008.7 - -
 
Date/Time
EST
Temp
°C
App
Temp
°C
Dew
Point
Rel
Hum
%
Delta-T
°C
Wind Press
QNH
hPa
Press
MSL
hPa
Rain
since 9 am
mm
Dir
 
Spd
km/h
Gust
km/h
Spd
kts
Gust
kts
01/11:50pm 13.1 5.3 8.1 71 2.5 SW 39 44 21 24 1008.5 - -
01/11:40pm 13.1 5.7 8.5 73 2.3 SW 37 44 20 24 1008.5 - -
01/11:30pm 13.2 6.7 8.8 74 2.2 SW 33 39 18 21 1008.6 - -
01/11:20pm 13.2 6.3 8.8 74 2.2 SW 35 43 19 23 1008.7 - -
01/11:10pm 13.2 6.4 9.4 78 1.9 SW 35 44 19 24 1008.7 - -
01/11:00pm 13.5 7.9 10.2 80 1.7 SW 30 37 16 20 1008.7 - -
01/10:50pm 13.7 9.4 10.6 81 1.6 WSW 24 32 13 17 1008.8 - -
01/10:40pm 13.6 8.5 10.5 81 1.6 WSW 28 33 15 18 1008.7 - -
01/10:30pm 13.7 8.6 10.7 82 1.6 SW 28 33 15 18 1008.7 - -
01/10:20pm 13.9 8.8 10.7 81 1.7 WSW 28 37 15 20 1008.7 - -
01/10:10pm 14.3 9.3 11.1 81 1.7 WSW 28 35 15 19 1008.6 - -
01/10:00pm 13.8 8.8 10.8 82 1.6 WSW 28 35 15 19 1008.7 - -
01/09:50pm 13.8 9.1 10.7 81 1.6 WSW 26 32 14 17 1008.7 - -
01/09:40pm 13.8 9.4 10.5 80 1.7 WSW 24 30 13 16 1008.7 - -
01/09:30pm 14.0 9.2 10.4 79 1.9 WSW 26 32 14 17 1008.7 - -
01/09:20pm 13.8 8.9 10.1 78 1.9 WSW 26 30 14 16 1008.6 - -
01/09:10pm 13.9 9.0 10.0 77 2.0 WSW 26 30 14 16 1008.6 - -
01/09:00pm 13.8 8.1 9.8 77 2.1 WSW 30 37 16 20 1008.6 - -
01/08:50pm 14.0 7.8 9.9 76 2.1 WSW 33 39 18 21 1008.5 - -
01/08:20pm 14.3 9.1 10.1 76 2.2 W 28 33 15 18 1008.4 - -
01/08:10pm 14.3 9.8 9.9 75 2.3 W 24 30 13 16 1008.6 - -
01/08:00pm 14.3 9.7 9.7 74 2.4 W 24 30 13 16 1008.6 - -
01/07:50pm 14.4 9.8 9.8 74 2.4 WSW 24 30 13 16 1008.7 - -
01/07:40pm 14.5 9.5 9.6 72 2.5 WSW 26 32 14 17 1008.7 - -
01/07:30pm 14.4 9.2 8.9 69 2.8 WSW 26 32 14 17 1008.6 - -
01/07:20pm 14.4 8.9 9.3 71 2.6 WSW 28 33 15 18 1008.7 - -
01/07:10pm 14.3 9.3 9.6 73 2.4 WSW 26 32 14 17 1008.7 - -
01/07:00pm 14.4 10.2 9.9 74 2.3 WSW 22 28 12 15 1008.7 - -
01/06:50pm 14.4 9.1 9.8 74 2.4 WSW 28 35 15 19 1008.7 - -
01/06:40pm 14.4 9.5 10.0 75 2.3 WSW 26 32 14 17 1008.6 - -
01/06:30pm 14.5 9.6 9.9 74 2.4 WSW 26 32 14 17 1008.6 - -
01/06:20pm 14.4 9.1 9.8 74 2.4 WSW 28 33 15 18 1008.4 - -
01/06:10pm 14.2 8.9 9.9 75 2.2 WSW 28 35 15 19 1008.1 - -
01/06:00pm 14.1 8.5 10.1 77 2.1 WSW 30 37 16 20 1008.0 - -
01/05:40pm 14.0 8.3 9.9 76 2.1 WSW 30 35 16 19 1007.9 - -
01/05:30pm 14.1 8.0 9.9 76 2.2 WSW 32 37 17 20 1007.8 - -
01/05:20pm 14.2 7.5 9.8 75 2.3 WSW 35 43 19 23 1007.7 - -
01/05:10pm 14.3 6.5 9.8 74 2.3 WSW 41 50 22 27 1007.4 - -
01/05:00pm 14.3 5.9 9.7 74 2.4 WSW 44 50 24 27 1007.0 - -
01/04:50pm 14.3 5.5 9.6 73 2.4 WSW 46 57 25 31 1006.7 - -
01/04:40pm 14.4 4.8 9.6 73 2.5 WSW 50 61 27 33 1006.3 - -
01/04:30pm 14.5 5.7 9.7 73 2.5 SW 46 57 25 31 1006.4 - -
01/04:20pm 14.7 6.9 9.9 73 2.5 SW 41 52 22 28 1006.6 - -
01/04:10pm 14.8 6.6 9.8 72 2.6 SW 43 54 23 29 1006.4 - -
01/04:00pm 14.9 6.5 9.7 71 2.7 SW 44 52 24 28 1006.2 - -
01/03:40pm 15.1 8.8 9.6 69 2.8 SW 33 44 18 24 1006.3 - -
01/03:30pm 15.3 9.9 9.6 69 3.0 SW 28 35 15 19 1006.4 - -
01/03:20pm 15.7 9.6 9.6 67 3.2 SSW 32 39 17 21 1006.6 - -
01/03:10pm 16.0 8.9 9.4 65 3.4 SSW 37 46 20 25 1006.7 - -
01/03:00pm 16.2 9.4 9.1 63 3.7 SSW 35 46 19 25 1006.7 - -
01/02:50pm 15.8 11.2 9.5 66 3.3 SSW 24 41 13 22 1006.6 - -
01/02:40pm 16.0 11.4 9.7 66 3.3 SSW 24 28 13 15 1006.6 - -
01/02:30pm 16.6 12.9 10.0 65 3.5 SSW 20 24 11 13 1006.4 - -
01/02:20pm 17.3 13.0 9.5 60 4.1 SSW 22 26 12 14 1006.2 - -
01/02:10pm 18.0 14.0 9.0 55 4.7 WSW 20 28 11 15 1005.9 - -
01/02:00pm 18.0 13.7 9.4 57 4.5 W 22 39 12 21 1005.8 - -
01/01:50pm 18.1 12.5 8.8 54 4.8 NNW 28 33 15 18 1005.3 - -
01/01:40pm 17.8 11.5 9.1 56 4.5 NNW 32 35 17 19 1005.1 - -
01/01:30pm 17.6 12.6 9.6 59 4.2 N 26 33 14 18 1005.0 - -
01/01:20pm 17.8 13.2 9.6 58 4.3 N 24 28 13 15 1005.0 - -
01/01:10pm 18.0 12.9 9.3 56 4.6 N 26 30 14 16 1005.0 - -
01/01:00pm 17.9 12.1 9.3 57 4.5 N 30 33 16 18 1005.1 - -
01/12:50pm 17.8 12.7 9.2 57 4.5 N 26 33 14 18 1005.3 - -
01/12:40pm 17.7 11.8 9.0 56 4.5 - 30 35 16 19 1005.4 - -
01/12:30pm 17.7 12.2 9.2 57 4.4 N 28 33 15 18 1005.5 - -
01/12:20pm 18.0 11.6 8.7 54 4.8 - 32 37 17 20 1005.7 - -
01/12:00pm 17.5 10.7 9.3 58 4.3 - 35 41 19 22 1005.8 - -
01/11:50am 17.4 10.2 9.1 58 4.3 N 37 41 20 22 1005.9 - -
01/11:40am 17.7 10.7 8.6 55 4.7 N 35 41 19 22 1006.2 - -
01/11:30am 17.8 11.2 8.4 54 4.8 N 33 39 18 21 1006.6 - -
01/11:20am 17.8 11.4 8.5 54 4.8 N 32 37 17 20 1006.9 - -
01/11:10am 17.8 11.8 8.7 55 4.7 NNW 30 39 16 21 1007.3 - -
01/11:00am 17.3 12.2 9.3 59 4.2 NW 26 37 14 20 1007.6 - -
01/10:50am 17.0 12.7 9.5 61 3.9 NNW 22 28 12 15 1007.7 - -
01/10:40am 17.3 13.0 9.4 59 4.1 NW 22 28 12 15 1008.0 - -
01/10:30am 17.3 12.5 8.7 57 4.4 NW 24 30 13 16 1008.1 - -
01/10:20am 17.4 12.1 8.3 55 4.7 NW 26 30 14 16 1008.2 - -
01/10:10am 17.5 11.0 8.2 54 4.8 NW 32 35 17 19 1008.3 - -
01/10:00am 17.3 10.8 9.1 58 4.3 NW 33 39 18 21 1008.4 - -
01/09:50am 17.0 11.8 8.9 59 4.2 NNW 26 35 14 19 1008.4 - -
01/09:40am 17.0 10.3 8.3 56 4.4 NNW 33 43 18 23 1008.4 - -
01/09:30am 16.7 10.2 8.8 59 4.1 N 33 41 18 22 1008.3 - -
01/09:20am 16.5 10.2 9.1 61 3.8 NNW 32 39 17 21 1008.5 - -
01/09:10am 16.7 11.5 9.0 60 4.0 N 26 33 14 18 1008.5 - -
01/09:00am 16.9 11.3 8.8 59 4.2 NNW 28 33 15 18 1008.7 - -
01/08:50am 17.0 11.1 8.9 59 4.2 NNW 30 35 16 19 1008.7 - -
01/08:40am 17.0 10.5 9.1 59 4.1 NNW 33 41 18 22 1008.7 - -
01/08:30am 16.8 10.9 9.1 60 4.0 N 30 37 16 20 1008.7 - -
01/08:20am 16.6 11.1 9.1 61 3.9 N 28 32 15 17 1008.8 - -
01/08:10am 16.7 10.7 8.8 59 4.1 NNW 30 35 16 19 1009.0 - -
01/08:00am 16.5 10.5 8.7 60 4.0 NNW 30 35 16 19 1009.0 - -
01/07:50am 16.5 10.1 8.7 60 4.0 N 32 37 17 20 1008.9 - -
01/07:40am 16.5 9.9 8.7 60 4.0 N 33 37 18 20 1009.0 - -
01/07:30am 16.5 10.1 8.7 60 4.0 N 32 35 17 19 1009.1 - -
01/07:20am 16.4 10.8 8.8 60 3.9 NNW 28 35 15 19 1009.4 - -
01/07:10am 16.3 10.8 9.2 63 3.7 N 28 32 15 17 1009.5 - -
01/07:00am 16.1 10.7 9.4 64 3.5 N 28 32 15 17 1009.6 - -
01/06:50am 16.1 10.7 9.4 64 3.5 N 28 32 15 17 1009.6 - -
01/06:40am 16.1 10.7 9.6 65 3.4 N 28 30 15 16 1009.7 - -
01/06:30am 16.1 10.7 9.6 65 3.4 N 28 32 15 17 1009.7 - -
01/06:20am 16.0 11.0 9.6 66 3.3 N 26 30 14 16 1009.8 - -
01/06:00am 15.8 10.8 9.7 67 3.2 N 26 30 14 16 1009.9 - -
01/05:50am 15.8 10.9 9.9 68 3.1 N 26 30 14 16 1010.0 - -
01/05:30am 15.7 10.8 9.9 68 3.0 N 26 30 14 16 1010.0 - -
01/03:40am 15.8 11.6 9.9 68 3.1 N 22 28 12 15 1010.3 - -
01/03:30am 15.7 11.5 9.8 68 3.1 N 22 28 12 15 1010.3 - -
01/03:20am 15.6 11.1 9.9 69 3.0 N 24 30 13 16 1010.2 - -
01/03:10am 15.5 11.0 9.9 69 2.9 N 24 30 13 16 1010.3 - -
01/03:00am 15.7 11.1 9.7 67 3.1 N 24 28 13 15 1010.3 - -
01/02:50am 15.8 10.8 9.5 66 3.3 N 26 30 14 16 1010.4 - -
01/02:40am 16.0 11.0 9.7 66 3.3 N 26 32 14 17 1010.3 - -
01/02:30am 16.0 10.2 9.6 66 3.3 N 30 33 16 18 1010.1 - -
01/02:10am 15.7 10.4 9.9 68 3.0 - 28 35 15 19 1010.1 - -
01/02:00am 15.7 10.8 9.9 68 3.0 N 26 28 14 15 1010.2 - -
01/01:50am 15.7 11.2 9.9 68 3.0 - 24 28 13 15 1010.4 - -
01/01:40am 15.8 10.9 9.9 68 3.1 N 26 30 14 16 1010.5 - -
01/01:30am 15.8 11.3 10.2 69 2.9 N 24 28 13 15 1010.7 - -
01/01:20am 15.8 11.3 10.2 69 2.9 N 24 28 13 15 1010.9 - -
01/01:10am 15.8 11.1 10.5 71 2.8 N 26 30 14 16 1011.0 - -
01/01:00am 15.7 11.4 10.7 72 2.7 N 24 28 13 15 1011.2 - -
01/12:50am 15.6 11.3 10.7 72 2.6 - 24 28 13 15 1011.3 - -
01/12:40am 15.5 11.6 10.9 74 2.4 N 22 26 12 14 1011.6 - -
01/12:30am 15.4 11.2 11.1 75 2.3 N 24 26 13 14 1011.6 - -
01/12:20am 15.3 11.9 11.2 76 2.2 N 20 24 11 13 1011.8 - -
01/12:00am 15.3 12.1 11.3 77 2.1 - 19 22 10 12 1012.1 - -
 
Date/Time
EST
Temp
°C
App
Temp
°C
Dew
Point
Rel
Hum
%
Delta-T
°C
Wind Press
QNH
hPa
Press
MSL
hPa
Rain
since 9 am
mm
Dir
 
Spd
km/h
Gust
km/h
Spd
kts
Gust
kts
31/11:50pm 15.3 12.1 11.3 77 2.1 N 19 20 10 11 1012.3 - -
31/11:40pm 15.4 12.2 11.3 76 2.2 N 19 20 10 11 1012.4 - -
31/11:30pm 15.5 12.3 11.2 75 2.3 N 19 20 10 11 1012.5 - -
31/11:20pm 15.5 12.2 11.0 74 2.4 N 19 20 10 11 1012.7 - -
31/11:10pm 15.6 12.3 10.9 73 2.5 N 19 20 10 11 1012.8 - -
31/11:00pm 15.4 11.8 10.5 72 2.6 N 20 24 11 13 1012.8 - -
31/10:50pm 15.4 11.4 10.5 72 2.6 N 22 24 12 13 1012.9 - -
31/10:40pm 15.4 11.4 10.4 72 2.6 N 22 24 12 13 1013.1 - -
31/10:30pm 15.4 11.0 10.5 72 2.6 N 24 26 13 14 1013.1 - -
31/10:10pm 15.4 11.6 11.0 75 2.3 NNE 22 26 12 14 1013.2 - -
31/10:00pm 15.3 11.1 11.0 75 2.3 NNE 24 26 13 14 1013.3 - -
31/09:50pm 15.3 11.0 10.9 75 2.3 NNE 24 26 13 14 1013.4 - -
31/09:40pm 15.3 11.5 11.0 75 2.3 NNE 22 28 12 15 1013.6 - -
31/09:30pm 15.4 11.5 10.9 74 2.4 NNE 22 24 12 13 1013.7 - -
31/09:20pm 15.9 12.2 11.5 75 2.4 NNE 22 26 12 14 1013.8 - -
31/09:10pm 15.4 11.7 11.4 77 2.1 NNE 22 26 12 14 1014.0 - -
31/09:00pm 15.3 11.6 11.5 78 2.0 NNE 22 24 12 13 1014.1 - -
31/08:50pm 15.2 11.6 11.8 80 1.8 NNE 22 26 12 14 1014.1 - -
31/08:40pm 15.3 11.7 11.9 80 1.8 NNE 22 24 12 13 1014.2 - -
31/08:30pm 15.3 11.7 11.9 80 1.8 NNE 22 24 12 13 1014.3 - -
31/08:20pm 15.4 11.8 11.7 78 2.0 NNE 22 24 12 13 1014.3 - -
31/08:10pm 15.3 11.6 11.5 78 2.0 NNE 22 24 12 13 1014.3 - -
31/08:00pm 15.3 11.6 11.5 78 2.0 NNE 22 24 12 13 1014.4 - -
31/07:50pm 15.3 11.6 11.5 78 2.0 NNE 22 24 12 13 1014.5 - -
31/07:40pm 15.4 11.7 11.5 77 2.1 NNE 22 24 12 13 1014.5 - -
31/07:30pm 15.4 11.7 11.5 77 2.1 NNE 22 24 12 13 1014.6 - -
31/07:20pm 15.3 11.9 11.4 77 2.1 NNE 20 22 11 12 1014.6 - -
31/07:10pm 15.3 11.9 11.4 77 2.1 NNE 20 22 11 12 1014.7 - -
31/07:00pm 15.3 12.1 11.3 77 2.1 NNE 19 22 10 12 1014.8 - -
31/06:50pm 15.3 12.1 11.2 76 2.2 NNE 19 20 10 11 1014.8 - -
31/06:40pm 15.3 11.9 11.1 76 2.2 NNE 20 22 11 12 1014.8 - -
31/06:10pm 15.2 12.2 10.6 74 2.4 NE 17 17 9 9 1014.9 - -
31/06:00pm 15.1 12.5 10.6 74 2.4 NNE 15 17 8 9 1015.0 - -
31/05:50pm 15.1 12.4 10.4 73 2.5 NE 15 17 8 9 1015.0 - -
31/05:40pm 15.1 12.4 10.3 73 2.5 NNE 15 17 8 9 1015.0 - -
31/05:30pm 15.0 12.2 10.0 72 2.6 NE 15 17 8 9 1014.9 - -
31/05:20pm 14.9 12.1 9.9 72 2.6 NE 15 15 8 8 1014.9 - -
31/05:10pm 14.9 12.5 10.0 72 2.6 NNE 13 15 7 8 1014.8 - -
31/05:00pm 14.9 12.4 9.8 71 2.6 NNE 13 15 7 8 1014.8 - -
31/04:50pm 15.0 12.9 9.9 71 2.7 NNE 11 15 6 8 1014.9 - -
31/04:40pm 15.0 12.9 9.9 71 2.7 NNE 11 13 6 7 1014.9 - -
31/04:30pm 15.0 12.9 9.7 70 2.7 NNE 11 13 6 7 1014.9 - -
31/04:20pm 15.0 12.5 9.8 71 2.7 NNE 13 13 7 7 1014.9 - -
31/04:10pm 15.0 12.9 9.9 71 2.7 NNE 11 13 6 7 1014.9 - -
31/04:00pm 15.0 13.7 9.8 71 2.7 NNE 7 11 4 6 1015.0 - -
31/03:50pm 15.0 13.3 9.7 70 2.7 NNE 9 11 5 6 1015.0 - -
31/03:40pm 15.0 13.2 9.6 70 2.8 NNE 9 11 5 6 1014.9 - -
31/03:30pm 14.8 13.0 9.5 70 2.7 NNE 9 11 5 6 1015.0 - -
31/03:20pm 14.7 13.0 9.7 72 2.6 NNE 9 9 5 5 1015.1 - -
31/03:10pm 14.7 13.3 9.7 72 2.6 NNE 7 7 4 4 1015.1 - -
31/02:50pm 14.7 13.0 9.8 72 2.5 NNE 9 9 5 5 1015.3 - -
31/02:40pm 14.4 13.0 9.7 73 2.4 NNE 7 9 4 5 1015.5 - -
31/02:30pm 14.3 13.2 9.8 74 2.3 NNE 6 7 3 4 1015.5 - -
31/02:20pm 14.3 13.6 9.9 75 2.3 NNE 4 6 2 3 1015.6 - -
31/02:10pm 14.2 13.5 10.0 76 2.2 NNE 4 6 2 3 1015.6 - -
31/02:00pm 14.2 13.1 10.0 76 2.2 NNE 6 7 3 4 1015.7 - -
31/01:50pm 14.3 13.2 10.0 75 2.2 NNE 6 7 3 4 1015.8 - -
31/01:40pm 14.3 13.0 10.0 75 2.2 NNE 7 9 4 5 1015.8 - -
31/01:30pm 14.3 13.0 9.8 74 2.3 NNE 7 9 4 5 1015.8 - -
31/01:20pm 14.2 12.8 9.7 74 2.3 NNE 7 9 4 5 1015.8 - -
31/01:10pm 14.2 13.1 9.8 75 2.3 NNE 6 7 3 4 1016.0 - -
31/01:00pm 14.2 13.1 9.9 75 2.2 NNE 6 7 3 4 1016.2 - -
31/12:50pm 14.2 13.1 10.0 76 2.2 NNE 6 7 3 4 1016.4 - -
31/12:40pm 14.1 13.4 10.0 76 2.1 NNE 4 6 2 3 1016.4 - -
31/12:30pm 14.0 13.3 9.9 76 2.1 NNE 4 7 2 4 1016.6 - -
31/12:20pm 14.0 13.3 9.9 76 2.1 NNE 4 9 2 5 1016.7 - -
31/12:10pm 14.0 13.3 9.9 76 2.1 N 4 7 2 4 1016.9 - -
31/12:00pm 14.1 13.4 10.0 76 2.1 N 4 9 2 5 1017.0 - -
31/11:50am 14.3 13.6 10.1 76 2.2 N 4 9 2 5 1017.1 - -
31/11:30am 14.3 14.0 10.0 75 2.2 N 2 7 1 4 1017.5 - -
31/11:20am 14.5 13.8 10.1 75 2.3 NNW 4 7 2 4 1017.7 - -
31/11:10am 14.5 13.8 9.9 74 2.4 NNW 4 9 2 5 1017.8 - -
31/11:00am 14.5 13.7 9.5 72 2.6 NNW 4 9 2 5 1018.0 - -
31/10:50am 14.3 13.4 9.2 71 2.6 NNW 4 9 2 5 1018.1 - -
31/10:40am 14.3 13.4 9.2 71 2.6 N 4 9 2 5 1018.2 - -
31/10:30am 14.4 13.6 9.5 72 2.5 N 4 7 2 4 1018.4 - -
31/10:20am 14.5 13.8 10.1 75 2.3 N 4 9 2 5 1018.5 - -
31/10:10am 14.7 14.1 10.4 75 2.3 N 4 9 2 5 1018.6 - -
31/10:00am 14.9 14.7 10.6 75 2.3 NNW 2 7 1 4 1018.7 - -
31/09:50am 14.8 14.2 10.5 75 2.3 NW 4 6 2 3 1018.9 - -
31/09:40am 14.9 14.4 10.7 76 2.2 NW 4 6 2 3 1019.0 - -
31/09:30am 14.9 14.8 10.8 76 2.2 NW 2 6 1 3 1019.1 - -
31/09:20am 14.8 13.9 10.6 76 2.2 NW 6 9 3 5 1019.1 - -
31/09:10am 15.0 14.1 10.6 75 2.3 NW 6 7 3 4 1019.2 - -
31/09:00am 15.1 14.2 10.7 75 2.3 NW 6 9 3 5 1019.2 - -
31/08:50am 15.0 13.9 10.7 75 2.3 NW 7 9 4 5 1019.3 - -
31/08:40am 15.0 13.9 10.7 75 2.3 NW 7 9 4 5 1019.4 - -
31/08:30am 15.3 14.4 10.8 74 2.4 NW 6 9 3 5 1019.5 - -
31/08:20am 15.4 14.4 10.9 74 2.4 NW 7 9 4 5 1019.6 - -
31/08:10am 15.4 14.3 10.8 74 2.4 NW 7 9 4 5 1019.7 - -
31/08:00am 15.4 14.3 10.8 74 2.4 NNW 7 9 4 5 1019.7 - -
31/07:50am 15.3 14.2 10.8 74 2.4 NNW 7 11 4 6 1019.8 - -
31/07:40am 14.8 13.6 10.4 75 2.3 NNW 7 9 4 5 1019.9 - -
31/07:30am 14.5 13.5 10.3 76 2.2 NNW 6 11 3 6 1019.8 - -
31/07:20am 14.4 13.5 10.5 77 2.0 N 6 9 3 5 1019.8 - -
31/07:10am 14.4 13.5 10.7 78 1.9 N 6 11 3 6 1019.8 - -
31/07:00am 14.3 13.3 11.0 80 1.7 N 7 13 4 7 1019.7 - -
31/06:50am 14.2 12.9 11.2 82 1.6 N 9 13 5 7 1019.6 - -
31/06:40am 14.1 12.8 11.3 83 1.5 N 9 13 5 7 1019.6 - -
31/06:30am 14.0 12.7 11.4 84 1.4 N 9 11 5 6 1019.6 - -
31/06:10am 13.9 12.6 11.3 84 1.4 N 9 11 5 6 1019.5 - -
31/06:00am 13.8 12.5 11.2 84 1.4 N 9 13 5 7 1019.5 - -
31/05:50am 13.8 12.4 11.0 83 1.5 N 9 13 5 7 1019.5 - -
31/05:40am 14.0 12.2 10.9 81 1.6 N 11 15 6 8 1019.4 - -
31/05:30am 14.2 11.6 10.8 80 1.8 NNE 15 20 8 11 1019.3 - -
31/05:20am 14.2 10.9 10.9 80 1.7 NNE 19 22 10 12 1019.3 - -
31/05:10am 14.2 10.7 10.9 80 1.7 NNE 20 24 11 13 1019.2 - -
31/05:00am 14.2 10.8 11.1 81 1.6 NNE 20 22 11 12 1019.2 - -
31/04:50am 14.3 11.1 11.2 81 1.6 NNE 19 22 10 12 1019.2 - -
31/04:40am 14.3 11.1 11.3 82 1.6 NNE 19 22 10 12 1019.2 - -

Other Formats:

Comma delimited format used in spreadsheet applications
http://www.bom.gov.au/fwo/IDV60801/IDV60801.55039.axf

JavaScript Object Notation format (JSON) in row-major order
http://www.bom.gov.au/fwo/IDV60801/IDV60801.55039.json